• Join FlightAware (Why Join?)
  • Login
  • US Flag 
11:59AM EDT


 

Airport Tracker/Info


-or-


 

Live Flight TrackerFlight Track Log ✈ N658DS ✈ 23-Jun-2013 ✈ KTLH - KAPF

Flight Track Log - Related Links

Times and Time Zones

All times are in EDT time to prevent confusion due to time zone crossing. See the N658DS flight status page for this flight to view local times or setup timezone preferences in your user account.

Time Position Orientation Groundspeed Altitude Reporting Facility
EDT Latitude Longitude Course Direction KTS MPH feet Rate Location/Type
10:47AM 30.0694 -84.0206 151° Southeast 108 124 3,500  Level Jacksonville Center
10:48AM 30.0550 -83.9869 116° Southeast 103 119 3,500  Level Jacksonville Center
10:49AM 30.0428 -83.9581 116° Southeast 103 119 3,500  Level Jacksonville Center
10:50AM 30.0306 -83.9267 114° Southeast 103 119 3,500  Level Jacksonville Center
10:51AM 30.0183 -83.8953 114° Southeast 103 119 3,500  Level Jacksonville Center
10:52AM 29.8853 -84.0276 151° Southeast  Level Estimated
10:52AM 30.0081 -83.8639 111° Southeast 103 119 3,500  Level Jacksonville Center
10:53AM 29.9958 -83.8350 116° Southeast 97 112 3,500  Level Jacksonville Center
10:54AM 29.9814 -83.8014 116° Southeast 97 112 3,500  Level Jacksonville Center
10:55AM 29.9669 -83.7678 116° Southeast 97 112 3,500  Level Jacksonville Center
10:56AM 29.9525 -83.7389 120° Southeast 97 112 3,500  Level Jacksonville Center
10:57AM 29.9339 -83.7194 138° Southeast 97 112 3,500  Level Jacksonville Center
10:58AM 29.9111 -83.6931 135° Southeast 102 117 3,500  Level Jacksonville Center
10:59AM 29.8861 -83.6783 153° Southeast 102 117 3,500  Level Jacksonville Center
11:00AM 29.8592 -83.6661 159° South 102 117 3,500  Level Jacksonville Center
11:01AM 29.8364 -83.6469 144° Southeast 102 117 3,500  Level Jacksonville Center
11:02AM 29.8114 -83.6250 143° Southeast 102 117 3,500  Level Jacksonville Center
11:03AM 29.7906 -83.6081 145° Southeast 102 117 3,500  Level Jacksonville Center
11:04AM 29.7656 -83.5842 140° Southeast 102 117 3,500  Level Jacksonville Center
11:05AM 29.7428 -83.5672 147° Southeast 102 117 3,500  Level Jacksonville Center
11:06AM 29.7242 -83.5408 129° Southeast 107 123 3,500  Level Jacksonville Center
11:07AM 29.7056 -83.5167 132° Southeast 107 123 3,500  Level Jacksonville Center
11:08AM 29.6867 -83.4903 129° Southeast 107 123 3,500  Level Jacksonville Center
11:09AM 29.6681 -83.4661 132° Southeast 107 123 3,500  Level Jacksonville Center
11:10AM 29.6517 -83.4422 128° Southeast 101 116 3,500  Level Jacksonville Center
11:11AM 29.6411 -83.4136 113° Southeast 95 109 3,500 240 Level Jacksonville Center
11:12AM 29.6331 -83.3847 108° East 89 102 4,000 480 Climbing Jacksonville Center
11:13AM 29.6247 -83.3586 110° East 89 102 4,500 480 Climbing Jacksonville Center
11:14AM 29.6206 -83.3275 99° East 94 108 5,000 480 Climbing Jacksonville Center
11:15AM 29.6144 -83.2939 102° East 94 108 5,500 240 Climbing Jacksonville Center
11:16AM 29.5936 -83.2747 141° Southeast 99 114 5,500  Level Jacksonville Center
11:17AM 29.5625 -83.2675 169° South 94 108 5,500  Level Jacksonville Center
11:18AM 29.5353 -83.2556 159° South 104 120 5,500  Level Jacksonville Center
11:19AM 29.5039 -83.2433 161° South 109 125 5,500  Level Jacksonville Center
11:20AM 29.4747 -83.2289 157° South 114 131 5,500  Level Jacksonville Center
11:21AM 29.4456 -83.2144 157° South 114 131 5,500  Level Jacksonville Center
11:22AM 29.4186 -83.2025 159° South 109 125 5,500  Level Jacksonville Center
11:23AM 29.3894 -83.1881 157° South 109 125 5,500  Level Jacksonville Center
11:24AM 29.3581 -83.1761 162° South 109 125 5,500  Level Jacksonville Center
11:25AM 29.3308 -83.1617 155° Southeast 109 125 5,500  Level Jacksonville Center
11:26AM 29.2997 -83.1497 161° South 109 125 5,500  Level Jacksonville Center
11:27AM 29.2706 -83.1353 157° South 109 125 5,500 60 Level Jacksonville Center
11:28AM 29.2392 -83.1211 159° South 109 125 5,700 300 Climbing Jacksonville Center
11:29AM 29.2119 -83.1092 159° South 109 125 6,200 480 Climbing Jacksonville Center
11:30AM 29.1869 -83.0994 161° South 109 125 6,700 480 Climbing Jacksonville Center
11:31AM 29.1600 -83.0853 155° Southeast 109 125 7,200 360 Climbing Jacksonville Center
11:32AM 29.1350 -83.0733 157° South 109 125 7,500 120 Climbing Jacksonville Center
11:33AM 29.1036 -83.0614 162° South 109 125 7,500  Level Jacksonville Center
11:34AM 29.0722 -83.0469 158° South 114 131 7,500  Level Jacksonville Center
11:35AM 29.0411 -83.0328 158° South 114 131 7,500  Level Jacksonville Center
11:36AM 29.0117 -83.0183 157° South 114 131 7,500  Level Jacksonville Center
11:37AM 28.9806 -83.0064 161° South 114 131 7,500  Level Jacksonville Center
11:38AM 28.9514 -82.9897 153° Southeast 114 131 7,500  Level Jacksonville Center
11:39AM 28.9200 -82.9781 162° South 114 131 7,500  Level Jacksonville Center
11:40AM 28.8908 -82.9636 157° South 114 131 7,500  Level Jacksonville Center
11:41AM 28.8617 -82.9519 161° South 114 131 7,500  Level Jacksonville Center
11:42AM 28.8303 -82.9375 158° South 114 131 7,500  Level Jacksonville Center
11:43AM 28.8011 -82.9258 161° South 114 131 7,500  Level Jacksonville Center
11:45AM 28.7333 -82.9000 162° South 117 135 7,500  Level Tampa TRACON
11:46AM 28.7000 -82.8833 156° South 117 135 7,500  Level Tampa TRACON
11:47AM 28.6667 -82.8667 156° South 116 133 7,500  Level Tampa TRACON
11:49AM 28.6227 -82.8447 156° South  Level FlightAware Approximate
11:56AM 28.4331 -82.7601 159° South  Level FlightAware Approximate
11:57AM 28.4060 -82.7482 159° South  Level FlightAware Approximate
11:58AM 28.3789 -82.7363 159° South  Level FlightAware Approximate
11:59AM 28.3517 -82.7244 159° South  Level FlightAware Approximate
12:00PM 28.3246 -82.7125 159° South  Level FlightAware Approximate
12:01PM 28.2974 -82.7007 159° South  Level FlightAware Approximate
12:02PM 28.2703 -82.6888 159° South  Level FlightAware Approximate
12:03PM 28.2431 -82.6770 159° South  Level FlightAware Approximate
12:04PM 28.2160 -82.6651 159° South  Level FlightAware Approximate
12:05PM 28.1888 -82.6533 159° South  Level FlightAware Approximate
12:06PM 28.1617 -82.6414 159° South  Level FlightAware Approximate
12:07PM 28.1345 -82.6296 159° South  Level FlightAware Approximate
12:08PM 28.1074 -82.6178 159° South  Level FlightAware Approximate
12:09PM 28.0802 -82.6059 159° South  Level FlightAware Approximate
12:10PM 28.0531 -82.5941 159° South  Level FlightAware Approximate
12:11PM 28.0259 -82.5823 159° South  Level FlightAware Approximate
12:12PM 27.9987 -82.5705 159° South  Level FlightAware Approximate
12:13PM 27.9716 -82.5587 159° South  Level FlightAware Approximate
12:14PM 27.9444 -82.5469 159° South  Level FlightAware Approximate
12:15PM 27.9173 -82.5352 159° South  Level FlightAware Approximate
12:16PM 27.8901 -82.5234 159° South  Level FlightAware Approximate
12:17PM 27.8629 -82.5116 159° South  Level FlightAware Approximate
12:18PM 27.8358 -82.4998 159° South  Level FlightAware Approximate
12:19PM 27.8086 -82.4881 159° South  Level FlightAware Approximate
12:20PM 27.7814 -82.4763 159° South  Level FlightAware Approximate
12:21PM 27.7543 -82.4646 159° South  Level FlightAware Approximate
12:22PM 27.7271 -82.4528 159° South  Level FlightAware Approximate
12:23PM 27.6999 -82.4411 159° South  Level FlightAware Approximate
12:24PM 27.6728 -82.4294 159° South  Level FlightAware Approximate
12:25PM 27.6456 -82.4176 159° South  Level FlightAware Approximate
12:26PM 27.6184 -82.4059 159° South  Level FlightAware Approximate
12:27PM 27.5912 -82.3942 159° South  Level FlightAware Approximate
12:28PM 27.5641 -82.3825 159° South  Level FlightAware Approximate
12:29PM 27.5369 -82.3708 159° South  Level FlightAware Approximate
12:30PM 27.5097 -82.3591 159° South  Level FlightAware Approximate
12:31PM 27.4825 -82.3474 159° South  Level FlightAware Approximate
12:32PM 27.4554 -82.3357 159° South  Level FlightAware Approximate
12:33PM 27.4282 -82.3240 159° South  Level FlightAware Approximate
12:34PM 27.4010 -82.3124 159° South  Level FlightAware Approximate
12:35PM 27.3738 -82.3007 159° South  Level FlightAware Approximate
12:36PM 27.3466 -82.2890 159° South  Level FlightAware Approximate
12:37PM 27.3201 -82.2758 153° Southeast  Level FlightAware Approximate
12:38PM 27.2942 -82.2609 153° Southeast  Level FlightAware Approximate
12:39PM 27.2682 -82.2461 153° Southeast  Level FlightAware Approximate
12:40PM 27.2423 -82.2313 153° Southeast  Level FlightAware Approximate
12:41PM 27.2163 -82.2166 162° South  Level FlightAware Approximate
12:42PM 27.1887 -82.2065 162° South  Level FlightAware Approximate
12:43PM 27.1610 -82.1964 162° South  Level FlightAware Approximate
12:44PM 27.1333 -82.1863 162° South  Level FlightAware Approximate
12:45PM 27.1056 -82.1763 162° South  Level FlightAware Approximate
12:46PM 27.0780 -82.1662 162° South  Level FlightAware Approximate
12:47PM 27.0503 -82.1562 162° South  Level FlightAware Approximate
12:48PM 27.0228 -82.1454 159° South  Level FlightAware Approximate
12:49PM 26.9957 -82.1335 159° South  Level FlightAware Approximate
12:50PM 26.9686 -82.1217 159° South  Level FlightAware Approximate
12:51PM 26.9415 -82.1098 159° South  Level FlightAware Approximate
12:52PM 26.9144 -82.0980 159° South  Level FlightAware Approximate
12:53PM 26.8873 -82.0861 159° South  Level FlightAware Approximate
12:54PM 26.8602 -82.0743 159° South  Level FlightAware Approximate
12:55PM 26.8331 -82.0625 159° South  Level FlightAware Approximate
12:56PM 26.8060 -82.0507 159° South  Level FlightAware Approximate
12:57PM 26.7789 -82.0388 159° South  Level FlightAware Approximate
12:58PM 26.7518 -82.0270 159° South  Level FlightAware Approximate
12:59PM 26.7247 -82.0152 159° South  Level FlightAware Approximate
01:00PM 26.6976 -82.0034 159° South  Level FlightAware Approximate
01:01PM 26.6705 -81.9916 159° South  Level FlightAware Approximate
01:02PM 26.6434 -81.9798 159° South  Level FlightAware Approximate
01:03PM 26.6162 -81.9681 159° South  Level FlightAware Approximate
01:04PM 26.5891 -81.9563 159° South  Level FlightAware Approximate
01:05PM 26.5620 -81.9445 159° South  Level FlightAware Approximate
01:06PM 26.5349 -81.9327 159° South  Level FlightAware Approximate
01:07PM 26.5078 -81.9210 159° South  Level FlightAware Approximate
01:08PM 26.4806 -81.9092 159° South  Level FlightAware Approximate
01:09PM 26.4535 -81.8975 159° South  Level FlightAware Approximate
01:10PM 26.4264 -81.8857 159° South  Level FlightAware Approximate
01:11PM 26.3993 -81.8740 159° South  Level FlightAware Approximate
01:12PM 26.3722 -81.8623 159° South  Level FlightAware Approximate
01:13PM 26.3451 -81.8505 159° South  Level FlightAware Approximate
01:14PM 26.3179 -81.8388 159° South  Level FlightAware Approximate
01:15PM 26.2908 -81.8271 159° South  Level FlightAware Approximate
01:16PM 26.2636 -81.8156 163° South  Level FlightAware Approximate
01:17PM 26.2357 -81.8064 163° South  Level FlightAware Approximate
01:18PM 26.2083 -81.7958 156° South  Level FlightAware Approximate
01:19PM 26.1817 -81.7825 156° South  Level FlightAware Approximate
01:20PM 26.1552 -81.7693 156° South  Level FlightAware Approximate
01:21PM 26.1500 -81.7667 156° South  Level FlightAware Approximate
01:22PM 26.1524 -81.7756 156° South  Level Estimated
01:23PM 26.1524 -81.7756 156° South  Level Estimated
01:24PM 26.1524 -81.7756 156° South  Level Estimated
01:25PM 26.1524 -81.7756 156° South  Level Estimated
01:26PM 26.1524 -81.7756 156° South  Level Estimated
01:27PM 26.1524 -81.7756 156° South  Level Estimated
01:28PM 26.1524 -81.7756 156° South  Level Estimated
01:29PM 26.1524 -81.7756 156° South  Level Estimated
01:30PM 26.1524 -81.7756 156° South  Level Estimated
01:31PM 26.1524 -81.7756 156° South  Level Estimated
01:32PM 26.1524 -81.7756 156° South  Level Estimated
01:33PM 26.1524 -81.7756 156° South  Level Estimated
01:34PM 26.1524 -81.7756 156° South  Level Estimated
01:35PM 26.1524 -81.7756 156° South  Level Estimated
01:36PM 26.1524 -81.7756 156° South  Level Estimated
01:37PM 26.1524 -81.7756 156° South  Level Estimated